Home   Weather   Norway   Moss   Past weeks
Flag for Norway

Past Weather in Moss, Norway — Yesterday and Last 2 Weeks

Currently: 57 °F. Refreshingly cool. (Weather station: Rygge, Norway). See more current weather

Past Weather in Moss — Graph

°F

Moss Temperature Yesterday

Maximum temperature yesterday: 61 °F (at 4:20 pm)
Minimum temperature yesterday: 39 °F (at 5:50 am)
Average temperature yesterday: 50 °F

High & Low Weather Summary for the Past Weeks

 TemperatureHumidityPressure
High61 °F (Apr 17, 4:20 pm)100% (Apr 4, 2:50 am)30.57 "Hg (Apr 4, 2:50 am)
Low25 °F (Apr 11, 4:20 am)23% (Apr 6, 3:50 pm)29.03 "Hg (Apr 4, 11:50 pm)
Average40 °F58%29.90 "Hg
* Reported Apr 3 10:20 am — Apr 18 10:20 am, Moss. Weather by CustomWeather, © 2021

Note: Actual official high and low records may vary slightly from our data, if they occured in-between our weather recording intervals... More about our weather records

Moss Weather History for the Previous 24 Hours

Scroll right to see more
 ConditionsComfort  
Time TempWeatherWind HumidityBarometerVisibility
10:20 am
Sun, Apr 18
52 °FCool.8 mph38%30.42 "HgN/A
9:50 am50 °FCool.9 mph40%30.42 "HgN/A
9:20 am46 °FCool.9 mph46%30.42 "HgN/A
8:50 am45 °FQuite cool.7 mph46%30.42 "HgN/A
8:20 am45 °FQuite cool.6 mph46%30.42 "HgN/A
7:50 am43 °FQuite cool.5 mph49%30.42 "HgN/A
7:20 am41 °FQuite cool.7 mph53%30.42 "HgN/A
6:50 am39 °FChilly.5 mph56%30.42 "HgN/A
6:20 am37 °FChilly.5 mph60%30.42 "HgN/A
5:50 am37 °FChilly.6 mph60%30.42 "HgN/A
5:20 am37 °FChilly.5 mph65%30.42 "HgN/A
4:50 am37 °FChilly.6 mph65%30.42 "HgN/A
4:20 am39 °FChilly.5 mph56%30.42 "HgN/A
3:50 am41 °FQuite cool.5 mph57%30.42 "HgN/A
3:20 am41 °FQuite cool.5 mph57%30.42 "HgN/A
2:50 am41 °FQuite cool.5 mph57%30.42 "HgN/A
2:20 am41 °FQuite cool.5 mph57%30.42 "HgN/A
1:50 am41 °FQuite cool.5 mph57%30.42 "HgN/A
1:20 am41 °FQuite cool.3 mph61%30.42 "HgN/A
12:50 am43 °FQuite cool.5 mph57%30.42 "HgN/A
11:50 pm
Sat, Apr 17
45 °FQuite cool.2 mph49%30.42 "HgN/A
11:20 pm46 °FCool.5 mph46%30.42 "HgN/A
10:50 pm46 °FCool.3 mph46%30.42 "HgN/A
10:20 pm46 °FCool.3 mph50%30.39 "HgN/A
9:50 pm50 °FCool.5 mph40%30.39 "HgN/A
9:20 pm52 °FCool.3 mph38%30.39 "HgN/A
8:50 pm54 °FCool.5 mph35%30.39 "HgN/A
8:20 pm55 °FRefreshingly cool.5 mph33%30.39 "HgN/A
7:50 pm57 °FRefreshingly cool.5 mph31%30.39 "HgN/A
7:20 pm59 °FRefreshingly cool.6 mph29%30.39 "HgN/A
6:50 pm59 °FRefreshingly cool.8 mph27%30.39 "HgN/A
6:20 pm61 °FRefreshingly cool.8 mph25%30.39 "HgN/A
5:50 pm61 °FRefreshingly cool.7 mph29%30.39 "HgN/A
5:20 pm61 °FRefreshingly cool.8 mph29%30.39 "HgN/A
4:50 pm61 °FRefreshingly cool.10 mph27%30.39 "HgN/A
4:20 pm61 °FRefreshingly cool.12 mph29%30.39 "HgN/A
3:50 pm59 °FSunny.10 mph29%30.42 "Hg10 mi
3:20 pm59 °FPassing clouds.9 mph29%30.42 "HgN/A
2:50 pm59 °FPassing clouds.9 mph29%30.42 "HgN/A
2:20 pm59 °FPassing clouds.10 mph29%30.42 "HgN/A
1:50 pm57 °FSunny.13 mph31%30.42 "Hg10 mi
1:20 pm55 °FPassing clouds.12 mph36%30.45 "HgN/A
12:50 pm55 °FPassing clouds.12 mph36%30.45 "HgN/A
12:20 pm55 °FPassing clouds.12 mph33%30.45 "HgN/A
11:20 am54 °FPassing clouds.10 mph38%30.45 "HgN/A
Weather by CustomWeather, © 2021

See weather overview